| time (UTC) | temp C | wind direction | speed KPH | gust KPH | rain 1hr cm | rain 24hr cm | rain mn cm | humidity % | barometer mb |
| 20260507001354 | 18 | 155 | 0.0 | 1.6 | 0.00 | 0.64 | 0.64 | 94 | 1007.8 |
| 20260507000335 | 18 | 162 | 1.6 | 1.6 | 0.00 | 0.64 | 0.64 | 94 | 1007.1 |
| 20260506235312 | 18 | 131 | 1.6 | 3.2 | 0.00 | 0.64 | 0.64 | 95 | 1007.1 |
| 20260506234252 | 18 | 213 | 1.6 | 1.6 | 0.00 | 0.64 | 0.64 | 95 | 1006.8 |
| 20260506233230 | 18 | 143 | 0.0 | 1.6 | 0.00 | 0.64 | 0.64 | 95 | 1007.4 |
| 20260506232209 | 18 | 166 | 0.0 | 1.6 | 0.00 | 0.64 | 0.64 | 93 | 1007.1 |
| 20260506231148 | 18 | 135 | 0.0 | 0.0 | 0.00 | 0.61 | 0.61 | 92 | 1007.1 |
| 20260506230127 | 19 | 197 | 0.0 | 1.6 | 0.00 | 0.61 | 0.61 | 90 | 1006.8 |
| 20260506225106 | 19 | 148 | 0.0 | 0.0 | 0.00 | 0.61 | 0.61 | 89 | 1006.8 |
| 20260506224045 | 20 | 245 | 1.6 | 1.6 | 0.00 | 0.61 | 0.61 | 88 | 1006.4 |
| 20260506223024 | 19 | 148 | 1.6 | 1.6 | 0.00 | 0.61 | 0.61 | 87 | 1006.8 |
| 20260506222003 | 19 | 148 | 1.6 | 3.2 | 0.00 | 0.61 | 0.61 | 86 | 1007.1 |
| 20260506220942 | 20 | 151 | 0.0 | 1.6 | 0.00 | 0.61 | 0.61 | 86 | 1006.4 |
| 20260506215921 | 19 | 156 | 1.6 | 1.6 | 0.00 | 0.61 | 0.61 | 86 | 1006.4 |
| 20260506214900 | 20 | 189 | 3.2 | 3.2 | 0.00 | 0.61 | 0.61 | 85 | 1006.4 |
| 20260506213839 | 20 | 181 | 1.6 | 3.2 | 0.00 | 0.61 | 0.61 | 84 | 1006.4 |
| 20260506212818 | 20 | 211 | 6.4 | 6.4 | 0.00 | 0.61 | 0.61 | 83 | 1006.1 |
| 20260506211757 | 20 | 193 | 4.8 | 4.8 | 0.00 | 0.61 | 0.61 | 83 | 1006.4 |
| 20260506210736 | 21 | 183 | 3.2 | 4.8 | 0.00 | 0.61 | 0.61 | 81 | 1006.1 |
| 20260506205715 | 21 | 177 | 3.2 | 3.2 | 0.00 | 0.61 | 0.61 | 80 | 1005.8 |
| 20260506204654 | 21 | 249 | 3.2 | 4.8 | 0.00 | 0.61 | 0.61 | 80 | 1006.1 |
| 20260506203633 | 20 | 138 | 3.2 | 3.2 | 0.00 | 0.61 | 0.61 | 83 | 1006.1 |
| 20260506202612 | 20 | 187 | 3.2 | 3.2 | 0.00 | 0.61 | 0.61 | 82 | 1006.1 |
| 20260506201551 | 20 | 226 | 3.2 | 3.2 | 0.00 | 0.61 | 0.61 | 82 | 1005.8 |
| 20260506200530 | 19 | 169 | 4.8 | 4.8 | 0.00 | 0.61 | 0.61 | 85 | 1005.8 |
| 20260506195509 | 19 | 192 | 3.2 | 4.8 | 0.00 | 0.61 | 0.61 | 84 | 1006.1 |
| 20260506194448 | 20 | 234 | 3.2 | 6.4 | 0.00 | 0.61 | 0.61 | 84 | 1006.4 |
| 20260506193427 | 20 | 161 | 1.6 | 1.6 | 0.00 | 0.61 | 0.61 | 84 | 1006.4 |
| 20260506192406 | 20 | 169 | 3.2 | 3.2 | 0.00 | 0.61 | 0.61 | 84 | 1006.1 |
| 20260506191345 | 19 | 178 | 9.7 | 11.3 | 0.00 | 0.61 | 0.61 | 85 | 1006.4 |
| 20260506190324 | 19 | 150 | 3.2 | 4.8 | 0.00 | 0.61 | 0.61 | 85 | 1006.4 |
| 20260506185306 | 19 | 220 | 6.4 | 12.9 | 0.00 | 0.61 | 0.61 | 86 | 1006.4 |
| 20260506184242 | 19 | 275 | 4.8 | 6.4 | 0.00 | 0.61 | 0.61 | 86 | 1006.4 |
| 20260506183221 | 18 | 225 | 3.2 | 6.4 | 0.00 | 0.61 | 0.61 | 89 | 1006.4 |
| 20260506182200 | 18 | 224 | 4.8 | 6.4 | 0.00 | 0.61 | 0.61 | 91 | 1006.8 |
| 20260506181138 | 17 | 220 | 8.0 | 9.7 | 0.00 | 0.61 | 0.61 | 92 | 1006.8 |
| 20260506180118 | 17 | 187 | 6.4 | 6.4 | 0.00 | 0.61 | 0.61 | 94 | 1006.8 |
| 20260506175057 | 16 | 171 | 3.2 | 4.8 | 0.00 | 0.61 | 0.61 | 95 | 1007.1 |
| 20260506174036 | 16 | 125 | 3.2 | 3.2 | 0.00 | 0.61 | 0.61 | 94 | 1007.4 |
| 20260506173015 | 16 | 167 | 3.2 | 3.2 | 0.00 | 0.61 | 0.61 | 95 | 1007.1 |
| 20260506171954 | 16 | 216 | 1.6 | 3.2 | 0.00 | 0.61 | 0.61 | 95 | 1007.4 |
| 20260506170933 | 16 | 164 | 6.4 | 6.4 | 0.00 | 0.61 | 0.61 | 95 | 1007.1 |
| 20260506165912 | 16 | 180 | 6.4 | 11.3 | 0.00 | 0.61 | 0.61 | 96 | 1006.8 |
| 20260506164851 | 16 | 230 | 3.2 | 3.2 | 0.00 | 0.61 | 0.61 | 98 | 1007.1 |
| 20260506163830 | 16 | 202 | 4.8 | 6.4 | 0.00 | 0.61 | 0.61 | 99 | 1007.1 |
| 20260506162808 | 16 | 209 | 8.0 | 11.3 | 0.00 | 0.61 | 0.61 | 99 | 1007.1 |
| 20260506161748 | 16 | 187 | 6.4 | 9.7 | 0.00 | 0.61 | 0.61 | 99 | 1007.1 |
| 20260506160727 | 16 | 198 | 8.0 | 9.7 | 0.00 | 0.61 | 0.61 | 99 | 1007.4 |
| 20260506155706 | 16 | 149 | 3.2 | 3.2 | 0.00 | 0.61 | 0.61 | 99 | 1006.8 |
| 20260506154644 | 16 | 204 | 3.2 | 4.8 | 0.13 | 0.61 | 0.61 | 99 | 1007.1 |
| 20260506153624 | 16 | 177 | 3.2 | 4.8 | 0.00 | 0.58 | 0.58 | 99 | 1006.8 |
| 20260506152602 | 16 | 171 | 1.6 | 1.6 | 0.13 | 0.56 | 0.56 | 99 | 1007.4 |
| 20260506151542 | 16 | 210 | 3.2 | 11.3 | 0.00 | 0.53 | 0.53 | 99 | 1008.1 |
| 20260506150521 | 16 | 171 | 0.0 | 1.6 | 0.30 | 0.51 | 0.51 | 99 | 1008.1 |
| 20260506145500 | 16 | 233 | 6.4 | 6.4 | 0.13 | 0.46 | 0.46 | 98 | 1008.1 |
| 20260506144439 | 16 | 177 | 3.2 | 3.2 | 0.30 | 0.43 | 0.43 | 98 | 1008.5 |
| 20260506143418 | 16 | 163 | 3.2 | 4.8 | 0.00 | 0.38 | 0.38 | 98 | 1008.1 |
| 20260506142356 | 16 | 228 | 9.7 | 12.9 | 0.00 | 0.00 | 0.00 | 97 | 1008.1 |
| 20260506141336 | 16 | 188 | 3.2 | 3.2 | 0.13 | 0.33 | 0.33 | 97 | 1007.8 |
| 20260506140315 | 16 | 158 | 1.6 | 1.6 | 0.43 | 0.28 | 0.28 | 96 | 1007.8 |
| 20260506135254 | 16 | 169 | 1.6 | 1.6 | 0.30 | 0.20 | 0.20 | 94 | 1007.8 |
| 20260506134233 | 16 | 178 | 3.2 | 4.8 | 0.30 | 0.15 | 0.15 | 92 | 1007.8 |
| 20260506133212 | 16 | 202 | 3.2 | 3.2 | 0.00 | 0.10 | 0.10 | 91 | 1007.8 |
| 20260506132151 | 17 | 194 | 3.2 | 6.4 | 0.00 | 0.08 | 0.08 | 91 | 1007.8 |
| 20260506131129 | 17 | 156 | 3.2 | 3.2 | 0.13 | 0.08 | 0.08 | 89 | 1007.8 |
| 20260506130108 | 17 | 203 | 3.2 | 3.2 | 0.00 | 0.05 | 0.05 | 87 | 1007.8 |
| 20260506125047 | 17 | 200 | 6.4 | 11.3 | 0.00 | 0.03 | 0.03 | 86 | 1007.8 |
| 20260506124026 | 17 | 173 | 1.6 | 1.6 | 0.00 | 0.03 | 0.03 | 87 | 1008.1 |
| 20260506123006 | 17 | 267 | 4.8 | 6.4 | 0.00 | 0.03 | 0.03 | 85 | 1007.8 |
| 20260506121944 | 17 | 179 | 3.2 | 3.2 | 0.00 | 0.00 | 0.00 | 85 | 1008.5 |
| 20260506120923 | 17 | 194 | 8.0 | 9.7 | 0.00 | 0.00 | 0.00 | 85 | 1008.1 |
| 20260506115902 | 17 | 176 | 1.6 | 3.2 | 0.00 | 0.00 | 0.00 | 84 | 1008.1 |
| 20260506114841 | 17 | 171 | 1.6 | 1.6 | 0.00 | 0.00 | 0.00 | 83 | 1007.8 |
| 20260506113820 | 17 | 156 | 3.2 | 4.8 | 0.00 | 0.00 | 0.00 | 81 | 1007.8 |
| 20260506112759 | 18 | 182 | 1.6 | 1.6 | 0.00 | 0.00 | 0.00 | 80 | 1007.8 |
| 20260506111711 | 18 | 149 | 0.0 | 1.6 | 0.00 | 0.00 | 0.00 | 81 | 1007.8 |
| 20260506110650 | 18 | 209 | 6.4 | 6.4 | 0.00 | 0.00 | 0.00 | 79 | 1007.4 |
| 20260506105629 | 18 | 213 | 3.2 | 4.8 | 0.00 | 0.00 | 0.00 | 78 | 1007.4 |
| 20260506104608 | 18 | 216 | 3.2 | 4.8 | 0.00 | 0.00 | 0.00 | 77 | 1007.1 |
| 20260506103547 | 18 | 173 | 4.8 | 4.8 | 0.00 | 0.00 | 0.00 | 77 | 1007.4 |
| 20260506102526 | 18 | 193 | 8.0 | 11.3 | 0.00 | 0.00 | 0.00 | 77 | 1007.1 |
| 20260506101505 | 18 | 184 | 4.8 | 4.8 | 0.00 | 0.00 | 0.00 | 76 | 1007.1 |
| 20260506100445 | 18 | 219 | 6.4 | 9.7 | 0.00 | 0.00 | 0.00 | 76 | 1007.1 |
| 20260506095423 | 18 | 215 | 1.6 | 3.2 | 0.00 | 0.00 | 0.00 | 76 | 1006.8 |
| 20260506094402 | 18 | 171 | 0.0 | 1.6 | 0.00 | 0.00 | 0.00 | 75 | 1006.8 |
| 20260506093341 | 18 | 141 | 3.2 | 6.4 | 0.00 | 0.00 | 0.00 | 75 | 1006.8 |
| 20260506092320 | 18 | 187 | 3.2 | 3.2 | 0.00 | 0.00 | 0.00 | 75 | 1006.8 |
| 20260506091259 | 18 | 255 | 6.4 | 9.7 | 0.00 | 0.00 | 0.00 | 74 | 1007.1 |
| 20260506090239 | 18 | 158 | 3.2 | 3.2 | 0.00 | 0.00 | 0.00 | 74 | 1007.1 |
| 20260506085217 | 18 | 202 | 9.7 | 11.3 | 0.00 | 0.00 | 0.00 | 74 | 1007.1 |
| 20260506084156 | 18 | 158 | 0.0 | 1.6 | 0.00 | 0.00 | 0.00 | 73 | 1007.1 |
| 20260506083135 | 18 | 189 | 3.2 | 4.8 | 0.00 | 0.00 | 0.00 | 73 | 1007.4 |
| 20260506082114 | 18 | 209 | 3.2 | 3.2 | 0.00 | 0.00 | 0.00 | 72 | 1007.1 |
| 20260506081053 | 18 | 162 | 1.6 | 3.2 | 0.00 | 0.00 | 0.00 | 71 | 1007.1 |
| 20260506072929 | 18 | 150 | 0.0 | 0.0 | 0.00 | 0.00 | 0.00 | 70 | 1007.4 |
| 20260506071908 | 18 | 146 | 0.0 | 0.0 | 0.00 | 0.00 | 0.00 | 68 | 1007.4 |
| 20260506070847 | 18 | 146 | 0.0 | 0.0 | 0.00 | 0.00 | 0.00 | 67 | 1007.4 |
| 20260506061702 | 20 | 156 | 3.2 | 3.2 | 0.00 | 0.00 | 0.00 | 61 | 1008.1 |
| 20260506060641 | 20 | 179 | 1.6 | 3.2 | 0.00 | 0.00 | 0.00 | 61 | 1007.8 |
| 20260506050435 | 20 | 202 | 6.4 | 6.4 | 0.00 | 0.00 | 0.00 | 57 | 1008.5 |
| 20260506044353 | 20 | 170 | 1.6 | 3.2 | 0.00 | 0.00 | 0.00 | 59 | 1008.5 |
| 20260506043332 | 20 | 180 | 3.2 | 4.8 | 0.00 | 0.00 | 0.00 | 57 | 1008.8 |
| 20260506042311 | 20 | 178 | 1.6 | 3.2 | 0.00 | 0.00 | 0.00 | 58 | 1008.8 |
| 20260506041250 | 20 | 201 | 3.2 | 3.2 | 0.00 | 0.00 | 0.00 | 57 | 1008.5 |
| 20260506040229 | 20 | 153 | 0.0 | 0.0 | 0.00 | 0.00 | 0.00 | 57 | 1008.5 |
| 20260506035208 | 20 | 155 | 3.2 | 4.8 | 0.00 | 0.00 | 0.00 | 57 | 1008.5 |
| 20260506034147 | 20 | 189 | 4.8 | 6.4 | 0.00 | 0.00 | 0.00 | 56 | 1008.5 |
| 20260506033126 | 19 | 181 | 3.2 | 3.2 | 0.00 | 0.00 | 0.00 | 58 | 1008.5 |
| 20260506032105 | 20 | 205 | 4.8 | 4.8 | 0.00 | 0.00 | 0.00 | 58 | 1008.5 |
| 20260506031044 | 20 | 166 | 1.6 | 3.2 | 0.00 | 0.00 | 0.00 | 57 | 1008.5 |
| 20260506030023 | 20 | 136 | 1.6 | 1.6 | 0.00 | 0.00 | 0.00 | 56 | 1008.8 |
| 20260506023941 | 20 | 192 | 3.2 | 4.8 | 0.00 | 0.00 | 0.00 | 54 | 1008.5 |
| 20260506022920 | 20 | 142 | 0.0 | 1.6 | 0.00 | 0.00 | 0.00 | 54 | 1008.5 |
| 20260506021859 | 20 | 157 | 1.6 | 1.6 | 0.00 | 0.00 | 0.00 | 53 | 1008.5 |
| 20260506020838 | 21 | 145 | 0.0 | 0.0 | 0.00 | 0.00 | 0.00 | 52 | 1008.5 |
| 20260506015817 | 21 | 154 | 1.6 | 1.6 | 0.00 | 0.00 | 0.00 | 50 | 1008.5 |
| 20260506014756 | 21 | 149 | 0.0 | 0.0 | 0.00 | 0.00 | 0.00 | 50 | 1008.5 |
| 20260506013735 | 21 | 200 | 3.2 | 4.8 | 0.00 | 0.00 | 0.00 | 48 | 1008.5 |
| 20260506012714 | 22 | 156 | 1.6 | 3.2 | 0.00 | 0.00 | 0.00 | 48 | 1008.1 |
| 20260506011653 | 22 | 181 | 1.6 | 1.6 | 0.00 | 0.00 | 0.00 | 46 | 1007.8 |
| 20260506010632 | 22 | 174 | 1.6 | 3.2 | 0.00 | 0.00 | 0.00 | 45 | 1007.8 |
| 20260506005611 | 23 | 157 | 0.0 | 0.0 | 0.00 | 0.00 | 0.00 | 43 | 1007.8 |
| 20260506004550 | 23 | 187 | 3.2 | 4.8 | 0.00 | 0.00 | 0.00 | 39 | 1007.4 |
| 20260506003529 | 24 | 194 | 6.4 | 11.3 | 0.00 | 0.00 | 0.00 | 38 | 1007.4 |
| 20260506002508 | 24 | 246 | 1.6 | 3.2 | 0.00 | 0.00 | 0.00 | 39 | 1007.1 |
| 20260506001447 | 25 | 164 | 1.6 | 3.2 | 0.00 | 0.00 | 0.00 | 37 | 1007.4 |